Time;durP1;ratioP1;P1;durP2;ratioP2;P2;SDS_P1;SDS_P2;PMS_P1;PMS_P2;Temp;Humidity;BMP_temperature;BMP_pressure;BME280_temperature;BME280_humidity;BME280_pressure;Samples;Min_cycle;Max_cycle;Signal;HPM_P1;HPM_P2
2021/05/22 00:02:12;;;;;;;6.32;1.05;;;8.80;99.90;;;;;;4989191;28;20037;-59
2021/05/22 00:04:37;;;;;;;3.28;1.00;;;8.80;99.90;;;;;;4989409;28;20029;-60
2021/05/22 00:07:03;;;;;;;3.70;1.10;;;8.70;99.90;;;;;;4988544;28;20152;-60
2021/05/22 00:09:28;;;;;;;7.45;0.77;;;8.70;99.90;;;;;;4986709;28;20034;-61
2021/05/22 00:11:54;;;;;;;4.97;1.23;;;8.60;99.90;;;;;;4987369;28;20058;-58
2021/05/22 00:14:20;;;;;;;5.90;1.23;;;8.60;99.90;;;;;;4988031;28;20876;-59
2021/05/22 00:16:45;;;;;;;6.18;1.30;;;8.50;99.90;;;;;;4986219;28;20500;-60
2021/05/22 00:19:11;;;;;;;6.05;1.20;;;8.50;99.90;;;;;;4989679;28;20500;-58
2021/05/22 00:21:37;;;;;;;2.08;0.93;;;8.50;99.90;;;;;;4992570;28;20057;-60
2021/05/22 00:24:02;;;;;;;5.85;1.10;;;8.50;99.90;;;;;;4989760;28;20085;-61
2021/05/22 00:26:28;;;;;;;5.15;1.10;;;8.50;99.90;;;;;;4989618;28;20031;-61
2021/05/22 00:28:53;;;;;;;8.65;1.63;;;8.50;99.90;;;;;;4989601;28;20031;-60
2021/05/22 00:31:19;;;;;;;7.40;1.33;;;8.50;99.90;;;;;;4987311;28;20058;-60
2021/05/22 00:33:45;;;;;;;3.92;0.90;;;8.50;99.90;;;;;;4991261;28;20030;-57
2021/05/22 00:36:10;;;;;;;3.10;0.70;;;8.40;99.90;;;;;;4988109;28;20049;-59
2021/05/22 00:38:36;;;;;;;8.48;1.05;;;8.50;99.90;;;;;;4988552;28;20076;-59
2021/05/22 00:41:01;;;;;;;5.15;0.98;;;8.60;99.90;;;;;;4985379;28;20030;-60
2021/05/22 00:43:27;;;;;;;3.33;1.20;;;8.60;99.90;;;;;;4988336;28;20074;-61
2021/05/22 00:45:54;;;;;;;4.93;1.58;;;8.60;99.90;;;;;;4988808;28;20559;-60
2021/05/22 00:48:21;;;;;;;5.82;1.20;;;8.60;99.90;;;;;;4989003;28;20042;-60
2021/05/22 00:50:47;;;;;;;6.13;1.30;;;8.60;99.90;;;;;;4989424;28;20081;-60
2021/05/22 00:53:13;;;;;;;4.55;0.93;;;8.60;99.90;;;;;;4972602;28;20510;-60
2021/05/22 00:55:39;;;;;;;5.28;1.40;;;8.50;99.90;;;;;;4992192;28;20066;-60
2021/05/22 00:58:05;;;;;;;3.22;0.90;;;8.50;99.90;;;;;;4989793;28;20081;-59
2021/05/22 01:00:44;;;;;;;6.20;0.90;;;8.50;99.90;;;;;;4989241;28;20517;-61
2021/05/22 01:03:34;;;;;;;5.22;2.45;;;8.40;99.90;;;;;;4983470;28;20030;-59
2021/05/22 01:06:22;;;;;;;6.13;1.27;;;8.40;99.90;;;;;;4986093;28;20038;-61
2021/05/22 01:08:53;;;;;;;7.57;1.80;;;8.30;99.90;;;;;;4989531;28;20500;-59
2021/05/22 01:11:27;;;;;;;9.55;1.65;;;8.30;99.90;;;;;;4988969;28;20403;-59
2021/05/22 01:14:03;;;;;;;;;;;8.30;99.90;;;;;;4987843;28;20038;-60
2021/05/22 01:16:29;;;;;;;16.88;1.45;;;8.30;99.90;;;;;;4989763;28;19914;-59
2021/05/22 01:18:58;;;;;;;6.53;0.90;;;8.30;99.90;;;;;;4993542;28;20121;-58
2021/05/22 01:21:25;;;;;;;8.50;1.90;;;8.30;99.90;;;;;;4996139;28;20027;-60
2021/05/22 01:23:55;;;;;;;6.07;1.95;;;8.30;99.90;;;;;;4990316;28;20522;-58
2021/05/22 01:26:22;;;;;;;4.72;1.17;;;8.30;99.90;;;;;;4995313;28;20439;-60
2021/05/22 01:28:47;;;;;;;9.98;1.15;;;8.30;99.90;;;;;;4991006;28;20038;-60
2021/05/22 01:31:13;;;;;;;4.88;1.23;;;8.40;99.90;;;;;;4994811;28;20100;-60
2021/05/22 01:33:38;;;;;;;7.88;1.10;;;8.40;99.90;;;;;;4989373;28;20030;-60
2021/05/22 01:36:06;;;;;;;4.07;0.90;;;8.40;99.90;;;;;;4994980;28;20034;-60
2021/05/22 01:38:31;;;;;;;7.47;1.30;;;8.30;99.90;;;;;;4994910;28;20423;-60
2021/05/22 01:40:57;;;;;;;6.65;1.25;;;8.40;99.90;;;;;;4994978;28;20033;-60
2021/05/22 01:43:23;;;;;;;4.20;1.00;;;8.40;99.90;;;;;;4993165;28;20054;-60
2021/05/22 01:45:51;;;;;;;6.10;1.08;;;8.40;99.90;;;;;;4995406;28;20038;-60
2021/05/22 01:48:23;;;;;;;4.82;0.93;;;8.40;99.90;;;;;;4991921;28;20026;-60
2021/05/22 01:50:50;;;;;;;7.97;1.52;;;8.40;99.90;;;;;;4992006;28;20036;-59
2021/05/22 01:53:17;;;;;;;6.72;1.33;;;8.40;99.90;;;;;;4998306;28;20394;-60
2021/05/22 01:55:46;;;;;;;7.25;1.30;;;8.40;99.90;;;;;;4981050;28;20537;-59
2021/05/22 01:58:12;;;;;;;5.28;1.00;;;8.40;99.90;;;;;;4997468;28;20037;-60
2021/05/22 02:00:39;;;;;;;7.35;1.80;;;8.40;99.90;;;;;;4988318;28;20034;-60
2021/05/22 02:03:11;;;;;;;7.82;1.70;;;8.40;99.90;;;;;;4999805;28;20050;-60
2021/05/22 02:05:38;;;;;;;6.53;1.30;;;8.40;99.90;;;;;;4993581;28;20038;-61
2021/05/22 02:08:09;;;;;;;9.52;1.10;;;8.40;99.90;;;;;;4996874;28;20018;-57
2021/05/22 02:10:35;;;;;;;5.15;1.30;;;8.40;99.90;;;;;;4992580;28;20049;-58
2021/05/22 02:13:02;;;;;;;8.82;1.20;;;8.40;99.90;;;;;;4995137;28;20054;-60
2021/05/22 02:15:30;;;;;;;8.77;1.65;;;8.40;99.90;;;;;;4998755;28;20031;-61
2021/05/22 02:17:56;;;;;;;4.53;0.85;;;8.40;99.90;;;;;;4994305;28;20050;-57
2021/05/22 02:20:24;;;;;;;7.40;1.65;;;8.40;99.90;;;;;;4996771;28;20562;-59
2021/05/22 02:22:51;;;;;;;6.57;1.42;;;8.50;99.90;;;;;;4994635;28;20034;-58
2021/05/22 02:25:16;;;;;;;9.48;1.70;;;8.50;99.90;;;;;;4993538;28;20041;-61
2021/05/22 02:27:43;;;;;;;7.45;1.35;;;8.50;99.90;;;;;;4992502;28;20027;-60
2021/05/22 02:30:10;;;;;;;6.30;1.30;;;8.50;99.90;;;;;;4995013;28;20018;-59
2021/05/22 02:32:40;;;;;;;8.40;1.30;;;8.50;99.90;;;;;;4992886;28;20074;-59
2021/05/22 02:35:07;;;;;;;8.63;1.10;;;8.50;99.90;;;;;;4991145;28;20034;-59
2021/05/22 02:37:35;;;;;;;7.60;1.92;;;8.40;99.90;;;;;;4995030;28;20104;-59
2021/05/22 02:40:13;;;;;;;4.50;1.40;;;8.50;99.90;;;;;;4994476;28;20377;-60
2021/05/22 02:42:42;;;;;;;6.00;1.23;;;8.40;99.90;;;;;;4992157;28;20018;-60
2021/05/22 02:45:09;;;;;;;8.88;1.35;;;8.40;99.90;;;;;;4992470;28;20014;-58
2021/05/22 02:47:35;;;;;;;8.23;1.20;;;8.50;99.90;;;;;;4993556;28;20109;-58
2021/05/22 02:50:07;;;;;;;13.02;1.73;;;8.40;99.90;;;;;;4996369;28;20032;-61
2021/05/22 02:52:36;;;;;;;8.77;1.33;;;8.40;99.90;;;;;;4992880;28;20031;-60
2021/05/22 02:55:05;;;;;;;11.82;2.25;;;8.40;99.90;;;;;;4992729;28;20391;-61
2021/05/22 02:57:32;;;;;;;9.13;1.27;;;8.40;99.90;;;;;;4991818;28;20023;-60
2021/05/22 02:59:59;;;;;;;8.32;1.52;;;8.40;99.90;;;;;;4992511;28;20109;-61
2021/05/22 03:02:25;;;;;;;8.73;1.88;;;8.40;99.90;;;;;;4992877;28;20030;-60
2021/05/22 03:04:51;;;;;;;8.10;2.13;;;8.40;99.90;;;;;;4991750;28;20489;-60
2021/05/22 03:07:18;;;;;;;6.53;1.30;;;8.40;99.90;;;;;;4998040;28;20034;-60
2021/05/22 03:09:46;;;;;;;8.55;1.38;;;8.40;99.90;;;;;;4973731;28;20044;-58
2021/05/22 03:12:17;;;;;;;8.38;2.05;;;8.30;99.90;;;;;;4997325;28;20109;-59
2021/05/22 03:14:43;;;;;;;3.47;0.95;;;8.40;99.90;;;;;;4992485;28;20113;-61
2021/05/22 03:17:09;;;;;;;8.75;1.27;;;8.40;99.90;;;;;;4995547;28;20448;-59
2021/05/22 03:19:34;;;;;;;9.93;1.70;;;8.40;99.90;;;;;;5000228;28;20037;-60
2021/05/22 03:22:00;;;;;;;9.43;1.50;;;8.40;99.90;;;;;;4992437;28;20065;-59
2021/05/22 03:24:25;;;;;;;7.65;1.30;;;8.30;99.90;;;;;;4996544;28;20675;-60
2021/05/22 03:26:52;;;;;;;4.00;1.30;;;8.30;99.90;;;;;;4991761;28;20057;-60
2021/05/22 03:29:17;;;;;;;11.75;2.03;;;8.30;99.90;;;;;;4994782;28;20034;-59
2021/05/22 03:31:43;;;;;;;6.95;1.30;;;8.30;99.90;;;;;;4991146;28;20030;-60
2021/05/22 03:34:08;;;;;;;10.65;1.80;;;8.40;99.90;;;;;;4997174;28;20495;-60
2021/05/22 03:36:34;;;;;;;6.10;1.45;;;8.40;99.90;;;;;;4993384;28;20659;-58
2021/05/22 03:39:00;;;;;;;6.22;1.50;;;8.40;99.90;;;;;;4997343;28;20041;-61
2021/05/22 03:41:25;;;;;;;10.13;1.55;;;8.40;99.90;;;;;;4992901;28;20511;-61
2021/05/22 03:43:51;;;;;;;13.43;1.45;;;8.40;99.90;;;;;;4996150;28;20030;-60
2021/05/22 03:46:16;;;;;;;11.23;1.90;;;8.50;99.90;;;;;;4990361;28;20033;-59
2021/05/22 03:48:42;;;;;;;7.63;1.60;;;8.50;99.90;;;;;;4996622;28;20052;-59
2021/05/22 03:51:07;;;;;;;6.13;1.50;;;8.50;99.90;;;;;;4991007;28;20061;-60
2021/05/22 03:53:33;;;;;;;7.28;1.40;;;8.50;99.90;;;;;;4993947;28;20937;-60
2021/05/22 03:55:58;;;;;;;6.10;1.40;;;8.60;99.90;;;;;;4990529;28;20514;-60
2021/05/22 03:58:24;;;;;;;6.80;1.30;;;8.60;99.90;;;;;;4993230;28;20026;-59
2021/05/22 04:00:50;;;;;;;6.70;1.67;;;8.70;99.90;;;;;;4993512;28;20037;-59
2021/05/22 04:03:15;;;;;;;6.10;1.50;;;8.70;99.90;;;;;;4990749;28;20612;-60
2021/05/22 04:05:41;;;;;;;11.13;1.80;;;8.80;99.90;;;;;;4994373;28;20045;-59
2021/05/22 04:08:06;;;;;;;9.15;1.90;;;9.00;99.90;;;;;;4991754;28;20121;-59
2021/05/22 04:10:32;;;;;;;10.93;1.42;;;9.00;99.90;;;;;;4995347;28;20110;-59
2021/05/22 04:12:58;;;;;;;10.20;2.53;;;9.00;99.90;;;;;;4990882;28;20018;-59
2021/05/22 04:15:23;;;;;;;8.73;1.48;;;9.00;99.90;;;;;;4988879;28;20057;-60
2021/05/22 04:17:49;;;;;;;7.28;1.48;;;9.00;99.90;;;;;;4990345;28;20498;-60
2021/05/22 04:20:14;;;;;;;6.68;1.42;;;9.00;99.90;;;;;;4990993;28;20849;-60
2021/05/22 04:22:40;;;;;;;9.82;2.05;;;9.10;99.90;;;;;;4989699;28;20033;-59
2021/05/22 04:25:07;;;;;;;19.98;3.00;;;9.10;99.90;;;;;;4992420;28;20053;-58
2021/05/22 04:27:32;;;;;;;7.63;1.40;;;9.20;99.90;;;;;;4995409;28;20030;-59
2021/05/22 04:29:58;;;;;;;10.05;1.33;;;9.20;99.90;;;;;;4992521;28;20106;-59
2021/05/22 04:32:23;;;;;;;10.23;1.67;;;9.30;99.90;;;;;;4993230;28;20030;-60
2021/05/22 04:34:49;;;;;;;13.95;1.98;;;9.40;99.90;;;;;;4996231;28;20026;-60
2021/05/22 04:37:14;;;;;;;7.88;1.70;;;9.50;99.90;;;;;;4990653;28;20053;-60
2021/05/22 04:39:40;;;;;;;6.97;1.83;;;9.60;99.90;;;;;;4994168;28;20038;-60
2021/05/22 04:42:06;;;;;;;6.72;1.45;;;9.70;99.90;;;;;;4993939;28;20046;-59
2021/05/22 04:44:32;;;;;;;6.00;1.25;;;9.70;99.90;;;;;;4991755;28;20034;-58
2021/05/22 04:46:57;;;;;;;15.38;1.90;;;9.80;99.90;;;;;;5000669;28;20030;-61
2021/05/22 04:49:23;;;;;;;5.07;1.38;;;9.70;99.90;;;;;;5000320;28;20097;-57
2021/05/22 04:51:48;;;;;;;10.98;2.00;;;9.70;99.90;;;;;;4996128;28;20022;-60
2021/05/22 04:54:16;;;;;;;5.40;1.25;;;9.80;99.90;;;;;;4989252;28;20029;-60
2021/05/22 04:56:42;;;;;;;14.05;1.60;;;9.80;99.90;;;;;;4990014;28;20061;-60
2021/05/22 04:59:07;;;;;;;9.70;1.48;;;9.80;99.90;;;;;;4991366;28;20496;-57
2021/05/22 05:01:33;;;;;;;8.85;1.23;;;9.80;99.90;;;;;;4996321;28;20034;-57
2021/05/22 05:03:59;;;;;;;8.77;1.67;;;9.80;99.90;;;;;;5001657;28;20030;-58
2021/05/22 05:06:25;;;;;;;6.90;1.35;;;9.90;99.90;;;;;;4995395;28;20023;-58
2021/05/22 05:08:51;;;;;;;5.60;1.10;;;9.80;99.90;;;;;;4999021;28;20060;-60
2021/05/22 05:11:17;;;;;;;13.50;1.77;;;9.80;99.90;;;;;;4992674;28;20058;-59
2021/05/22 05:13:43;;;;;;;11.02;1.80;;;9.90;99.90;;;;;;4998274;28;20054;-60
2021/05/22 05:16:08;;;;;;;7.80;1.38;;;9.90;99.90;;;;;;4994559;28;20026;-57
2021/05/22 05:18:34;;;;;;;9.05;1.20;;;10.00;99.90;;;;;;4996777;28;20030;-60
2021/05/22 05:20:59;;;;;;;10.90;1.80;;;10.20;99.90;;;;;;4998847;28;20041;-60
2021/05/22 05:23:25;;;;;;;7.90;2.08;;;10.30;99.90;;;;;;4995903;28;20023;-61
2021/05/22 05:25:53;;;;;;;9.50;2.25;;;10.50;99.90;;;;;;4998996;28;20030;-60
2021/05/22 05:28:22;;;;;;;9.57;1.58;;;10.40;99.90;;;;;;4993272;28;20108;-59
2021/05/22 05:30:48;;;;;;;7.82;1.90;;;10.30;99.90;;;;;;4992579;28;20030;-59
2021/05/22 05:33:13;;;;;;;9.48;1.58;;;10.30;99.90;;;;;;4997143;28;20109;-60
2021/05/22 05:35:39;;;;;;;4.80;1.38;;;10.30;99.90;;;;;;4997175;28;20165;-58
2021/05/22 05:38:06;;;;;;;8.93;1.27;;;10.20;99.90;;;;;;4998677;28;20049;-60
2021/05/22 05:40:31;;;;;;;7.32;1.73;;;10.20;99.90;;;;;;4993001;28;20031;-60
2021/05/22 05:42:57;;;;;;;7.82;1.55;;;10.20;99.90;;;;;;4989597;28;20435;-58
2021/05/22 05:45:23;;;;;;;6.40;1.10;;;10.10;99.90;;;;;;4993092;28;20046;-61
2021/05/22 05:47:53;;;;;;;7.25;1.58;;;10.10;99.90;;;;;;4994879;28;20058;-60
2021/05/22 05:50:19;;;;;;;15.48;2.70;;;10.00;99.90;;;;;;4996474;28;20022;-61
2021/05/22 05:52:44;;;;;;;5.63;1.20;;;10.00;99.90;;;;;;4993891;28;20030;-61
2021/05/22 05:55:11;;;;;;;6.15;1.95;;;10.10;99.90;;;;;;4994906;28;20053;-60
2021/05/22 05:57:36;;;;;;;6.13;1.20;;;10.10;99.90;;;;;;4993056;28;20101;-61
2021/05/22 06:00:04;;;;;;;4.63;1.40;;;10.20;99.90;;;;;;4996961;28;20203;-59
2021/05/22 06:02:30;;;;;;;6.35;2.25;;;10.30;99.90;;;;;;4996078;28;20042;-54
2021/05/22 06:04:56;;;;;;;4.47;1.38;;;10.30;99.90;;;;;;4994552;28;20011;-61
2021/05/22 06:07:21;;;;;;;6.18;1.15;;;10.40;99.90;;;;;;4997705;28;20382;-61
2021/05/22 06:09:47;;;;;;;6.30;1.20;;;10.50;99.90;;;;;;4992721;28;20033;-59
2021/05/22 06:12:13;;;;;;;7.88;1.58;;;10.50;99.90;;;;;;4995274;28;20028;-61
2021/05/22 06:14:41;;;;;;;6.40;1.42;;;10.70;99.90;;;;;;4993062;28;20030;-61
2021/05/22 06:17:06;;;;;;;6.43;1.30;;;10.70;99.90;;;;;;4994693;28;20030;-61
2021/05/22 06:19:32;;;;;;;5.85;1.48;;;10.90;99.90;;;;;;4995284;28;20097;-60
2021/05/22 06:21:58;;;;;;;4.05;1.00;;;10.90;99.90;;;;;;4987092;28;20080;-59
2021/05/22 06:24:24;;;;;;;6.72;1.25;;;11.00;99.90;;;;;;4996703;28;20072;-61
2021/05/22 06:26:53;;;;;;;8.65;1.05;;;11.00;99.90;;;;;;4991456;28;20018;-60
2021/05/22 06:29:18;;;;;;;7.65;1.13;;;11.00;99.90;;;;;;4996879;28;20018;-61
2021/05/22 06:31:44;;;;;;;6.90;1.25;;;11.10;99.90;;;;;;4992430;28;20036;-60
2021/05/22 06:34:09;;;;;;;6.85;1.00;;;11.30;99.90;;;;;;4997007;28;20019;-58
2021/05/22 06:36:35;;;;;;;2.00;0.75;;;11.50;99.90;;;;;;4995210;28;20805;-60
2021/05/22 06:39:01;;;;;;;4.30;0.88;;;11.70;99.90;;;;;;4995637;28;20407;-60
2021/05/22 06:41:27;;;;;;;5.95;0.98;;;11.90;99.90;;;;;;4993983;28;20396;-60
2021/05/22 06:43:52;;;;;;;3.15;0.65;;;12.00;99.90;;;;;;4991303;28;20042;-61
2021/05/22 06:48:43;;;;;;;3.10;0.77;;;12.40;99.90;;;;;;5004566;28;20084;-61
2021/05/22 06:51:09;;;;;;;4.80;1.00;;;13.20;99.90;;;;;;4997533;28;20029;-61
2021/05/22 06:53:34;;;;;;;4.63;0.80;;;13.70;99.90;;;;;;4995556;28;20099;-56
2021/05/22 06:56:00;;;;;;;3.63;1.08;;;14.50;99.90;;;;;;4996436;28;20066;-57
2021/05/22 06:58:26;;;;;;;4.72;1.10;;;15.40;99.60;;;;;;4994451;28;20038;-58
2021/05/22 07:00:52;;;;;;;3.25;0.88;;;15.50;98.20;;;;;;4973919;28;20042;-59
2021/05/22 07:03:24;;;;;;;6.10;1.25;;;15.10;98.00;;;;;;5002328;28;20030;-60
2021/05/22 07:06:01;;;;;;;3.50;0.90;;;14.50;99.00;;;;;;4992632;28;20765;-61
2021/05/22 07:08:29;;;;;;;2.53;0.90;;;14.20;99.80;;;;;;4978379;28;20030;-60
2021/05/22 07:10:59;;;;;;;4.00;1.08;;;13.60;99.90;;;;;;4983395;28;20035;-60
2021/05/22 07:13:27;;;;;;;3.95;0.88;;;13.50;99.90;;;;;;4988657;28;20022;-57
2021/05/22 07:15:53;;;;;;;3.47;0.63;;;13.20;99.90;;;;;;4972471;28;20031;-58
2021/05/22 07:18:22;;;;;;;3.45;0.90;;;13.10;99.90;;;;;;4989975;28;20076;-58
2021/05/22 07:20:53;;;;;;;2.13;0.70;;;13.10;99.90;;;;;;4987816;28;20088;-59
2021/05/22 07:23:34;;;;;;;2.10;0.82;;;13.40;99.90;;;;;;4990930;28;20026;-56
2021/05/22 07:26:19;;;;;;;3.45;0.98;;;13.30;99.90;;;;;;4988295;28;20034;-58
2021/05/22 07:28:52;;;;;;;3.47;0.90;;;12.80;99.90;;;;;;4987419;28;20070;-60
2021/05/22 07:31:18;;;;;;;2.83;0.73;;;12.50;99.90;;;;;;4987268;28;20035;-58
2021/05/22 07:33:44;;;;;;;3.75;0.55;;;12.40;99.90;;;;;;4995947;28;20033;-59
2021/05/22 07:36:13;;;;;;;3.88;0.90;;;12.20;99.90;;;;;;4990570;28;20034;-60
2021/05/22 07:38:41;;;;;;;4.20;0.70;;;11.90;99.90;;;;;;4996684;28;20178;-60
2021/05/22 07:41:14;;;;;;;2.05;0.60;;;11.80;99.90;;;;;;4982494;28;20499;-57
2021/05/22 07:43:48;;;;;;;6.63;3.00;;;11.80;99.90;;;;;;4989608;28;20503;-58
2021/05/22 07:46:22;;;;;;;11.32;8.43;;;11.70;99.90;;;;;;4977954;28;20042;-58
2021/05/22 07:48:52;;;;;;;5.82;2.95;;;11.60;99.90;;;;;;4989524;28;20526;-57
2021/05/22 07:51:36;;;;;;;4.63;3.92;;;11.60;99.90;;;;;;4990503;28;20026;-56
2021/05/22 07:54:02;;;;;;;4.93;1.30;;;11.50;99.90;;;;;;4995363;28;20399;-56
2021/05/22 07:56:33;;;;;;;4.72;1.27;;;11.50;99.90;;;;;;4988411;28;20030;-58
2021/05/22 07:59:04;;;;;;;5.05;1.73;;;11.60;99.90;;;;;;4975807;28;20069;-60
2021/05/22 08:01:41;;;;;;;5.97;2.47;;;11.60;99.90;;;;;;4970847;28;20076;-59
2021/05/22 08:04:10;;;;;;;24.70;13.05;;;11.50;99.90;;;;;;4992100;28;20034;-59
2021/05/22 08:06:42;;;;;;;10.27;3.88;;;11.40;99.90;;;;;;4987222;28;20030;-58
2021/05/22 08:09:08;;;;;;;4.50;1.77;;;11.40;99.90;;;;;;4988829;28;20106;-59
2021/05/22 08:11:36;;;;;;;6.78;3.20;;;11.30;99.90;;;;;;4987678;28;20105;-57
2021/05/22 08:14:02;;;;;;;4.53;2.33;;;11.10;99.90;;;;;;4988410;28;20021;-59
2021/05/22 08:16:28;;;;;;;25.90;10.27;;;11.10;99.90;;;;;;4986237;28;20480;-58
2021/05/22 08:18:54;;;;;;;40.70;23.00;;;11.00;99.90;;;;;;4990336;28;20121;-59
2021/05/22 08:21:22;;;;;;;4.95;2.50;;;10.80;99.90;;;;;;4988488;28;20031;-57
2021/05/22 08:23:49;;;;;;;5.03;2.28;;;10.70;99.90;;;;;;4991964;28;20500;-61
2021/05/22 08:26:18;;;;;;;53.50;27.77;;;10.80;99.90;;;;;;4987991;28;20070;-58
2021/05/22 08:28:44;;;;;;;61.58;29.85;;;10.70;99.90;;;;;;4992055;28;20026;-58
2021/05/22 08:31:10;;;;;;;40.55;21.25;;;10.80;99.90;;;;;;4987569;28;20029;-57
2021/05/22 08:33:35;;;;;;;2.95;1.75;;;10.70;99.90;;;;;;4996605;28;20027;-59
2021/05/22 08:36:03;;;;;;;3.45;1.52;;;10.70;99.90;;;;;;4993088;28;20046;-60
2021/05/22 08:38:35;;;;;;;21.48;13.00;;;10.70;99.90;;;;;;4994049;28;20034;-56
2021/05/22 08:41:01;;;;;;;3.63;2.03;;;10.80;99.90;;;;;;4988696;28;20117;-59
2021/05/22 08:43:27;;;;;;;4.10;1.40;;;10.80;99.90;;;;;;4978093;28;20546;-57
2021/05/22 08:45:53;;;;;;;12.88;6.65;;;10.90;99.90;;;;;;4994371;28;20034;-57
2021/05/22 08:48:21;;;;;;;11.70;4.28;;;10.80;99.90;;;;;;4995491;28;20451;-56
2021/05/22 08:50:48;;;;;;;13.50;6.93;;;10.80;99.90;;;;;;4994440;28;20030;-56
2021/05/22 08:53:16;;;;;;;20.77;10.15;;;10.80;99.90;;;;;;4995235;28;20022;-57
2021/05/22 08:55:45;;;;;;;13.93;8.07;;;10.80;99.90;;;;;;4990712;28;20129;-58
2021/05/22 08:58:19;;;;;;;7.90;5.00;;;10.80;99.90;;;;;;4991456;28;20049;-58
2021/05/22 09:00:46;;;;;;;5.95;3.20;;;10.90;99.90;;;;;;4972031;28;20034;-58
2021/05/22 09:03:14;;;;;;;8.65;4.00;;;11.00;99.90;;;;;;4978508;28;20072;-56
2021/05/22 09:05:42;;;;;;;4.78;2.15;;;11.10;99.90;;;;;;4997063;28;20490;-59
2021/05/22 09:08:15;;;;;;;2.47;1.48;;;11.20;99.90;;;;;;4999657;28;20088;-57
2021/05/22 09:10:47;;;;;;;1.95;0.80;;;11.20;99.90;;;;;;4995809;28;20050;-56
2021/05/22 09:13:24;;;;;;;3.20;0.70;;;11.20;99.90;;;;;;4999164;28;20134;-55
2021/05/22 09:16:04;;;;;;;2.97;0.80;;;11.20;99.90;;;;;;4994962;28;20058;-58
2021/05/22 09:18:38;;;;;;;4.95;0.45;;;11.20;99.90;;;;;;4998306;28;20034;-58
2021/05/22 09:21:10;;;;;;;2.08;0.60;;;11.10;99.90;;;;;;4990680;28;20034;-57
2021/05/22 09:23:50;;;;;;;3.45;0.70;;;11.00;99.90;;;;;;4996607;28;20034;-56
2021/05/22 09:26:17;;;;;;;3.83;0.70;;;11.10;99.90;;;;;;4990776;28;20043;-60
2021/05/22 09:28:46;;;;;;;3.22;0.95;;;11.10;99.90;;;;;;4989003;28;20033;-59
2021/05/22 09:31:18;;;;;;;2.90;0.90;;;11.20;99.90;;;;;;4992465;28;20026;-61
2021/05/22 09:33:44;;;;;;;1.42;0.73;;;11.20;99.90;;;;;;4999646;28;20041;-56
2021/05/22 09:36:13;;;;;;;2.10;0.82;;;11.20;99.90;;;;;;4994063;28;20030;-56
2021/05/22 09:38:50;;;;;;;4.95;0.80;;;11.20;99.90;;;;;;5001775;28;20041;-57
2021/05/22 09:41:25;;;;;;;3.38;0.85;;;11.20;99.90;;;;;;4992285;28;20113;-58
2021/05/22 09:44:05;;;;;;;3.15;0.82;;;11.30;99.90;;;;;;4991747;28;20511;-55
2021/05/22 09:46:32;;;;;;;2.65;0.57;;;11.30;99.90;;;;;;4987843;28;20041;-58
2021/05/22 09:49:06;;;;;;;5.25;1.33;;;11.40;99.90;;;;;;4988266;28;20018;-59
2021/05/22 09:51:32;;;;;;;3.42;0.82;;;11.40;99.90;;;;;;4989557;28;20029;-56
2021/05/22 09:53:58;;;;;;;2.45;1.60;;;11.40;99.90;;;;;;4988169;28;20038;-55
2021/05/22 09:56:25;;;;;;;6.40;2.92;;;11.40;99.90;;;;;;4987605;28;20404;-58
2021/05/22 09:58:55;;;;;;;4.07;2.03;;;11.40;99.90;;;;;;4988635;28;20034;-58
2021/05/22 10:01:32;;;;;;;4.32;0.77;;;11.30;99.90;;;;;;4971529;28;20054;-55
2021/05/22 10:04:21;;;;;;;7.13;0.95;;;11.30;99.90;;;;;;4988153;28;20413;-59
2021/05/22 10:06:47;;;;;;;4.65;1.13;;;11.30;99.90;;;;;;4984729;28;20037;-58
2021/05/22 10:09:18;;;;;;;5.28;1.15;;;11.20;99.90;;;;;;4988310;28;20035;-56
2021/05/22 10:12:28;;;;;;;10.65;1.50;;;11.20;99.90;;;;;;4986020;28;20026;-59
2021/05/22 10:14:54;;;;;;;5.57;1.73;;;11.30;99.90;;;;;;4948248;28;20023;-58
2021/05/22 10:17:19;;;;;;;9.48;5.00;;;11.30;99.90;;;;;;4950309;29;20045;-58
2021/05/22 10:19:46;;;;;;;1.70;1.00;;;11.40;99.90;;;;;;4969656;28;20047;-57
2021/05/22 10:22:12;;;;;;;8.27;1.70;;;11.40;99.90;;;;;;4986604;28;20041;-59
2021/05/22 10:24:37;;;;;;;3.17;0.95;;;11.30;99.90;;;;;;5000949;28;20042;-54
2021/05/22 10:27:03;;;;;;;3.40;0.80;;;11.30;99.90;;;;;;5000066;28;20033;-58
2021/05/22 10:29:29;;;;;;;3.58;0.90;;;11.40;99.90;;;;;;4996720;28;20030;-60
2021/05/22 10:31:55;;;;;;;3.20;0.88;;;11.40;99.90;;;;;;4997615;28;20014;-58
2021/05/22 10:34:24;;;;;;;5.35;1.40;;;11.50;99.90;;;;;;4998283;28;20105;-59
2021/05/22 10:36:51;;;;;;;2.55;1.00;;;11.50;99.90;;;;;;4989808;28;20027;-57
2021/05/22 10:39:35;;;;;;;5.25;0.82;;;11.60;99.90;;;;;;4993840;28;20046;-59
2021/05/22 10:42:01;;;;;;;;;;;11.60;99.90;;;;;;4997194;28;20606;-56
2021/05/22 10:44:29;;;;;;;1.33;0.85;;;11.70;99.90;;;;;;4998413;28;19910;-57
2021/05/22 10:47:14;;;;;;;4.38;0.60;;;11.70;99.90;;;;;;4998437;28;20467;-55
2021/05/22 10:49:50;;;;;;;2.15;0.88;;;11.80;99.90;;;;;;5000371;28;20092;-58
2021/05/22 10:52:18;;;;;;;3.65;1.20;;;11.90;99.90;;;;;;4997669;28;20674;-58
2021/05/22 10:55:00;;;;;;;3.17;0.90;;;11.90;99.90;;;;;;4996885;28;20026;-56
2021/05/22 10:57:28;;;;;;;3.53;0.63;;;11.90;99.90;;;;;;4997568;28;20033;-60
2021/05/22 11:00:16;;;;;;;3.97;0.80;;;12.00;99.90;;;;;;4978486;28;20034;-57
2021/05/22 11:02:45;;;;;;;5.38;0.95;;;12.10;99.90;;;;;;4986122;28;20050;-59
2021/05/22 11:05:32;;;;;;;2.83;0.60;;;12.10;99.90;;;;;;4992539;28;20113;-60
2021/05/22 11:08:03;;;;;;;5.70;1.95;;;12.10;99.90;;;;;;5002006;28;20061;-58
2021/05/22 11:10:49;;;;;;;3.15;1.10;;;12.20;99.90;;;;;;4995622;28;20480;-60
2021/05/22 11:13:20;;;;;;;5.88;1.95;;;12.20;99.90;;;;;;4999465;28;20026;-55
2021/05/22 11:16:00;;;;;;;5.38;0.63;;;12.20;99.90;;;;;;5001834;28;20049;-59
2021/05/22 11:18:47;;;;;;;3.88;0.88;;;12.20;99.90;;;;;;5001970;28;20028;-58
2021/05/22 11:21:24;;;;;;;3.15;0.82;;;12.30;99.90;;;;;;4997883;28;20037;-54
2021/05/22 11:23:59;;;;;;;3.22;1.10;;;12.30;99.90;;;;;;5004162;28;20116;-58
2021/05/22 11:26:48;;;;;;;4.07;1.00;;;12.30;99.90;;;;;;4990872;28;20507;-55
2021/05/22 11:29:15;;;;;;;9.70;1.40;;;12.40;99.90;;;;;;4998867;28;20057;-55
2021/05/22 11:31:40;;;;;;;4.60;0.90;;;12.30;99.90;;;;;;4989703;28;20036;-57
2021/05/22 11:34:25;;;;;;;7.43;1.27;;;12.30;99.90;;;;;;4992643;28;20109;-57
2021/05/22 11:37:09;;;;;;;;;;;12.40;99.90;;;;;;4989934;28;20030;-58
2021/05/22 11:39:42;;;;;;;2.83;0.80;;;12.40;99.90;;;;;;4994940;28;20383;-58
2021/05/22 11:42:30;;;;;;;7.07;1.17;;;12.50;99.90;;;;;;5000739;28;20026;-55
2021/05/22 11:44:58;;;;;;;4.57;1.20;;;12.60;99.90;;;;;;4989191;28;20033;-56
2021/05/22 11:47:33;;;;;;;7.75;1.23;;;12.70;99.90;;;;;;4991034;28;20101;-59
2021/05/22 11:50:00;;;;;;;4.65;0.88;;;12.80;99.90;;;;;;4995809;28;20038;-59
2021/05/22 11:52:32;;;;;;;4.20;0.80;;;12.70;99.90;;;;;;4997754;28;20077;-60
2021/05/22 11:55:00;;;;;;;3.28;0.98;;;12.80;99.90;;;;;;4989759;28;20435;-58
2021/05/22 11:57:26;;;;;;;3.58;0.80;;;13.00;99.90;;;;;;4988525;28;20344;-59
2021/05/22 11:59:52;;;;;;;7.63;1.50;;;13.30;99.90;;;;;;4988525;28;20030;-56
2021/05/22 12:02:39;;;;;;;11.45;1.60;;;13.50;99.90;;;;;;4987495;28;20042;-60
2021/05/22 12:05:07;;;;;;;6.20;1.40;;;13.80;99.90;;;;;;4987477;28;20165;-56
2021/05/22 12:07:50;;;;;;;9.20;1.30;;;13.80;99.90;;;;;;4987509;28;20102;-57
2021/05/22 12:10:17;;;;;;;3.75;1.10;;;13.70;99.90;;;;;;4988965;28;20029;-57
2021/05/22 12:12:42;;;;;;;6.80;1.17;;;13.60;99.90;;;;;;4987699;28;20400;-57
2021/05/22 12:15:24;;;;;;;5.15;1.20;;;13.60;99.90;;;;;;4989464;28;20023;-56
2021/05/22 12:17:51;;;;;;;8.25;1.23;;;13.60;99.90;;;;;;4987843;28;20030;-57
2021/05/22 12:20:17;;;;;;;2.53;1.00;;;13.70;99.90;;;;;;4989554;28;20551;-57
2021/05/22 12:22:43;;;;;;;2.70;1.02;;;13.40;99.90;;;;;;4987579;28;20042;-58
2021/05/22 12:25:09;;;;;;;5.28;1.35;;;13.20;99.90;;;;;;4985839;28;20037;-56
2021/05/22 12:27:37;;;;;;;3.65;1.10;;;13.10;99.90;;;;;;4989775;28;20046;-58
2021/05/22 12:30:04;;;;;;;5.35;1.40;;;13.00;99.90;;;;;;4989528;28;20023;-58
2021/05/22 12:32:29;;;;;;;6.53;1.20;;;12.90;99.90;;;;;;4989342;28;20038;-56
2021/05/22 12:35:07;;;;;;;4.97;1.38;;;13.00;99.90;;;;;;4993237;28;20030;-57
2021/05/22 12:37:34;;;;;;;6.93;1.20;;;12.90;99.90;;;;;;4986957;28;20507;-56
2021/05/22 12:40:03;;;;;;;6.93;1.65;;;12.90;99.90;;;;;;4992403;28;20038;-58
2021/05/22 12:42:31;;;;;;;5.90;1.10;;;13.00;99.90;;;;;;4979479;28;20034;-58
2021/05/22 12:45:17;;;;;;;2.97;0.88;;;13.00;99.90;;;;;;4985916;28;20443;-54
2021/05/22 12:47:52;;;;;;;5.50;1.40;;;13.10;99.90;;;;;;4987449;28;20033;-56
2021/05/22 12:50:30;;;;;;;5.40;1.20;;;13.00;99.90;;;;;;4995702;28;20029;-58
2021/05/22 12:52:56;;;;;;;7.45;1.33;;;13.10;99.90;;;;;;4991325;28;20076;-56
2021/05/22 12:55:23;;;;;;;8.70;2.45;;;13.00;99.90;;;;;;4995019;28;20029;-55
2021/05/22 12:57:49;;;;;;;6.40;1.63;;;13.10;99.90;;;;;;4990994;28;20048;-58
2021/05/22 13:00:16;;;;;;;7.80;1.27;;;13.10;99.90;;;;;;4989944;28;20582;-56
2021/05/22 13:02:55;;;;;;;4.45;1.17;;;13.20;99.90;;;;;;4996244;28;20042;-58